sensor_id;sensor_type;location;lat;lon;timestamp;temperature;humidity
46438;DHT22;32137;48.728;9.142;2023-07-31T00:00:24;16.40;8.80
46438;DHT22;32137;48.728;9.142;2023-07-31T00:02:49;16.40;6.20
46438;DHT22;32137;48.728;9.142;2023-07-31T00:05:15;16.30;15.90
46438;DHT22;32137;48.728;9.142;2023-07-31T00:07:41;16.30;19.70
46438;DHT22;32137;48.728;9.142;2023-07-31T00:10:06;16.20;23.30
46438;DHT22;32137;48.728;9.142;2023-07-31T00:12:32;16.20;23.10
46438;DHT22;32137;48.728;9.142;2023-07-31T00:14:58;16.20;25.60
46438;DHT22;32137;48.728;9.142;2023-07-31T00:17:23;16.20;30.00
46438;DHT22;32137;48.728;9.142;2023-07-31T00:19:48;16.20;27.20
46438;DHT22;32137;48.728;9.142;2023-07-31T00:22:16;16.20;41.00
46438;DHT22;32137;48.728;9.142;2023-07-31T00:24:41;16.10;54.00
46438;DHT22;32137;48.728;9.142;2023-07-31T00:27:07;16.10;59.70
46438;DHT22;32137;48.728;9.142;2023-07-31T00:29:32;16.00;64.20
46438;DHT22;32137;48.728;9.142;2023-07-31T00:31:57;16.00;96.40
46438;DHT22;32137;48.728;9.142;2023-07-31T00:34:23;15.90;94.00
46438;DHT22;32137;48.728;9.142;2023-07-31T00:36:48;15.90;98.70
46438;DHT22;32137;48.728;9.142;2023-07-31T00:39:14;15.80;99.90
46438;DHT22;32137;48.728;9.142;2023-07-31T00:41:39;15.80;99.90
46438;DHT22;32137;48.728;9.142;2023-07-31T00:44:04;15.80;99.90
46438;DHT22;32137;48.728;9.142;2023-07-31T00:46:30;15.80;99.90
46438;DHT22;32137;48.728;9.142;2023-07-31T00:48:56;15.80;99.90
46438;DHT22;32137;48.728;9.142;2023-07-31T00:51:21;15.70;99.90
46438;DHT22;32137;48.728;9.142;2023-07-31T00:53:47;15.70;99.90
46438;DHT22;32137;48.728;9.142;2023-07-31T00:56:12;15.70;99.90
46438;DHT22;32137;48.728;9.142;2023-07-31T00:58:38;15.60;99.90
46438;DHT22;32137;48.728;9.142;2023-07-31T01:01:04;15.60;99.90
46438;DHT22;32137;48.728;9.142;2023-07-31T01:03:29;15.50;99.90
46438;DHT22;32137;48.728;9.142;2023-07-31T01:05:59;15.60;99.90
46438;DHT22;32137;48.728;9.142;2023-07-31T01:08:37;15.60;99.90
46438;DHT22;32137;48.728;9.142;2023-07-31T01:11:11;15.50;99.90
46438;DHT22;32137;48.728;9.142;2023-07-31T01:13:39;15.50;99.90
46438;DHT22;32137;48.728;9.142;2023-07-31T01:16:05;15.50;99.90
46438;DHT22;32137;48.728;9.142;2023-07-31T01:18:30;15.60;99.90
46438;DHT22;32137;48.728;9.142;2023-07-31T01:20:58;15.50;99.90
46438;DHT22;32137;48.728;9.142;2023-07-31T01:23:34;15.50;99.90
46438;DHT22;32137;48.728;9.142;2023-07-31T01:28:39;15.50;99.90
46438;DHT22;32137;48.728;9.142;2023-07-31T01:31:06;15.50;99.90
46438;DHT22;32137;48.728;9.142;2023-07-31T01:33:32;15.50;99.90
46438;DHT22;32137;48.728;9.142;2023-07-31T01:35:58;15.50;99.90
46438;DHT22;32137;48.728;9.142;2023-07-31T01:38:23;15.50;99.90
46438;DHT22;32137;48.728;9.142;2023-07-31T01:40:52;15.40;99.90
46438;DHT22;32137;48.728;9.142;2023-07-31T01:43:18;15.40;99.90
46438;DHT22;32137;48.728;9.142;2023-07-31T01:45:43;15.40;99.90
46438;DHT22;32137;48.728;9.142;2023-07-31T01:48:09;15.30;99.90
46438;DHT22;32137;48.728;9.142;2023-07-31T01:50:34;15.40;99.90
46438;DHT22;32137;48.728;9.142;2023-07-31T01:53:00;15.30;99.90
46438;DHT22;32137;48.728;9.142;2023-07-31T01:55:25;15.30;99.90
46438;DHT22;32137;48.728;9.142;2023-07-31T01:57:51;15.30;99.90
46438;DHT22;32137;48.728;9.142;2023-07-31T02:00:17;15.30;99.90
46438;DHT22;32137;48.728;9.142;2023-07-31T02:02:43;15.30;99.90
46438;DHT22;32137;48.728;9.142;2023-07-31T02:05:08;15.30;99.90
46438;DHT22;32137;48.728;9.142;2023-07-31T02:07:34;15.30;99.90
46438;DHT22;32137;48.728;9.142;2023-07-31T02:09:59;15.30;99.90
46438;DHT22;32137;48.728;9.142;2023-07-31T02:12:25;15.20;99.90
46438;DHT22;32137;48.728;9.142;2023-07-31T02:14:50;15.30;99.90
46438;DHT22;32137;48.728;9.142;2023-07-31T02:17:16;15.30;99.90
46438;DHT22;32137;48.728;9.142;2023-07-31T02:19:41;15.30;99.90
46438;DHT22;32137;48.728;9.142;2023-07-31T02:22:06;15.30;99.90
46438;DHT22;32137;48.728;9.142;2023-07-31T02:24:32;15.20;99.90
46438;DHT22;32137;48.728;9.142;2023-07-31T02:26:57;15.30;99.90
46438;DHT22;32137;48.728;9.142;2023-07-31T02:29:23;15.20;99.90
46438;DHT22;32137;48.728;9.142;2023-07-31T02:31:48;15.20;99.90
46438;DHT22;32137;48.728;9.142;2023-07-31T02:34:14;15.20;99.90
46438;DHT22;32137;48.728;9.142;2023-07-31T02:36:39;15.20;99.90
46438;DHT22;32137;48.728;9.142;2023-07-31T02:39:05;15.10;99.90
46438;DHT22;32137;48.728;9.142;2023-07-31T02:41:30;15.10;99.90
46438;DHT22;32137;48.728;9.142;2023-07-31T02:43:55;15.00;99.90
46438;DHT22;32137;48.728;9.142;2023-07-31T02:46:21;15.10;99.90
46438;DHT22;32137;48.728;9.142;2023-07-31T02:48:49;15.10;99.90
46438;DHT22;32137;48.728;9.142;2023-07-31T02:51:15;15.00;99.90
46438;DHT22;32137;48.728;9.142;2023-07-31T02:53:40;15.00;99.90
46438;DHT22;32137;48.728;9.142;2023-07-31T02:56:05;15.00;99.90
46438;DHT22;32137;48.728;9.142;2023-07-31T02:58:31;15.00;99.90
46438;DHT22;32137;48.728;9.142;2023-07-31T03:00:58;14.90;99.90
46438;DHT22;32137;48.728;9.142;2023-07-31T03:03:23;14.90;99.90
46438;DHT22;32137;48.728;9.142;2023-07-31T03:05:48;14.90;99.90
46438;DHT22;32137;48.728;9.142;2023-07-31T03:08:14;14.80;99.90
46438;DHT22;32137;48.728;9.142;2023-07-31T03:10:39;14.80;99.90
46438;DHT22;32137;48.728;9.142;2023-07-31T03:13:05;14.80;99.90
46438;DHT22;32137;48.728;9.142;2023-07-31T03:15:31;14.80;99.90
46438;DHT22;32137;48.728;9.142;2023-07-31T03:17:56;14.80;99.90
46438;DHT22;32137;48.728;9.142;2023-07-31T03:20:22;14.80;99.90
46438;DHT22;32137;48.728;9.142;2023-07-31T03:22:47;14.80;99.90
46438;DHT22;32137;48.728;9.142;2023-07-31T03:25:13;14.80;99.90
46438;DHT22;32137;48.728;9.142;2023-07-31T03:27:39;14.80;99.90
46438;DHT22;32137;48.728;9.142;2023-07-31T03:30:05;14.80;99.90
46438;DHT22;32137;48.728;9.142;2023-07-31T03:32:30;14.80;99.90
46438;DHT22;32137;48.728;9.142;2023-07-31T03:34:56;14.70;99.90
46438;DHT22;32137;48.728;9.142;2023-07-31T03:37:22;14.70;99.90
46438;DHT22;32137;48.728;9.142;2023-07-31T03:39:47;14.70;99.90
46438;DHT22;32137;48.728;9.142;2023-07-31T03:42:13;14.70;99.90
46438;DHT22;32137;48.728;9.142;2023-07-31T03:44:38;14.70;99.90
46438;DHT22;32137;48.728;9.142;2023-07-31T03:47:04;14.70;99.90
46438;DHT22;32137;48.728;9.142;2023-07-31T03:49:29;14.70;99.90
46438;DHT22;32137;48.728;9.142;2023-07-31T03:51:55;14.70;99.90
46438;DHT22;32137;48.728;9.142;2023-07-31T03:54:20;14.80;99.90
46438;DHT22;32137;48.728;9.142;2023-07-31T03:56:46;14.80;99.90
46438;DHT22;32137;48.728;9.142;2023-07-31T03:59:11;14.80;99.90
46438;DHT22;32137;48.728;9.142;2023-07-31T04:01:37;14.90;99.90
46438;DHT22;32137;48.728;9.142;2023-07-31T04:04:02;14.90;99.90
46438;DHT22;32137;48.728;9.142;2023-07-31T04:06:28;14.90;99.90
46438;DHT22;32137;48.728;9.142;2023-07-31T04:08:53;14.90;99.90
46438;DHT22;32137;48.728;9.142;2023-07-31T04:11:18;14.90;99.90
46438;DHT22;32137;48.728;9.142;2023-07-31T04:13:44;15.00;99.90
46438;DHT22;32137;48.728;9.142;2023-07-31T04:16:09;15.00;99.90
46438;DHT22;32137;48.728;9.142;2023-07-31T04:18:35;15.00;99.90
46438;DHT22;32137;48.728;9.142;2023-07-31T04:21:00;15.10;99.90
46438;DHT22;32137;48.728;9.142;2023-07-31T04:23:29;15.10;99.90
46438;DHT22;32137;48.728;9.142;2023-07-31T04:25:55;15.10;99.90
46438;DHT22;32137;48.728;9.142;2023-07-31T04:28:20;15.10;99.90
46438;DHT22;32137;48.728;9.142;2023-07-31T04:30:46;15.10;99.90
46438;DHT22;32137;48.728;9.142;2023-07-31T04:33:12;15.20;99.90
46438;DHT22;32137;48.728;9.142;2023-07-31T04:35:37;15.20;99.90
46438;DHT22;32137;48.728;9.142;2023-07-31T04:38:03;15.20;99.90
46438;DHT22;32137;48.728;9.142;2023-07-31T04:40:28;15.20;99.90
46438;DHT22;32137;48.728;9.142;2023-07-31T04:42:53;15.20;99.90
46438;DHT22;32137;48.728;9.142;2023-07-31T04:45:19;15.20;99.90
46438;DHT22;32137;48.728;9.142;2023-07-31T04:47:44;15.20;99.90
46438;DHT22;32137;48.728;9.142;2023-07-31T04:50:10;15.30;99.90
46438;DHT22;32137;48.728;9.142;2023-07-31T04:52:35;15.20;99.90
46438;DHT22;32137;48.728;9.142;2023-07-31T04:55:01;15.30;99.90
46438;DHT22;32137;48.728;9.142;2023-07-31T04:57:26;15.30;99.90
46438;DHT22;32137;48.728;9.142;2023-07-31T04:59:52;15.30;99.90
46438;DHT22;32137;48.728;9.142;2023-07-31T05:02:17;15.30;99.90
46438;DHT22;32137;48.728;9.142;2023-07-31T05:04:43;15.30;99.90
46438;DHT22;32137;48.728;9.142;2023-07-31T05:07:08;15.30;99.90
46438;DHT22;32137;48.728;9.142;2023-07-31T05:09:34;15.40;99.90
46438;DHT22;32137;48.728;9.142;2023-07-31T05:11:59;15.40;99.90
46438;DHT22;32137;48.728;9.142;2023-07-31T05:14:25;15.40;99.90
46438;DHT22;32137;48.728;9.142;2023-07-31T05:16:51;15.40;99.90
46438;DHT22;32137;48.728;9.142;2023-07-31T05:19:16;15.30;99.90
46438;DHT22;32137;48.728;9.142;2023-07-31T05:21:42;15.30;99.90
46438;DHT22;32137;48.728;9.142;2023-07-31T05:24:07;15.30;99.90
46438;DHT22;32137;48.728;9.142;2023-07-31T05:26:32;15.40;99.90
46438;DHT22;32137;48.728;9.142;2023-07-31T05:28:58;15.30;99.90
46438;DHT22;32137;48.728;9.142;2023-07-31T05:31:23;15.40;99.90
46438;DHT22;32137;48.728;9.142;2023-07-31T05:33:49;15.40;99.90
46438;DHT22;32137;48.728;9.142;2023-07-31T05:36:15;15.40;99.90
46438;DHT22;32137;48.728;9.142;2023-07-31T05:38:41;15.40;99.90
46438;DHT22;32137;48.728;9.142;2023-07-31T05:41:09;15.50;99.90
46438;DHT22;32137;48.728;9.142;2023-07-31T05:43:34;15.50;99.90
46438;DHT22;32137;48.728;9.142;2023-07-31T05:46:00;15.60;99.90
46438;DHT22;32137;48.728;9.142;2023-07-31T05:48:26;15.70;99.90
46438;DHT22;32137;48.728;9.142;2023-07-31T05:50:52;15.80;99.90
46438;DHT22;32137;48.728;9.142;2023-07-31T05:53:17;15.90;99.90
46438;DHT22;32137;48.728;9.142;2023-07-31T05:55:43;15.90;99.90
46438;DHT22;32137;48.728;9.142;2023-07-31T05:58:08;16.00;99.90
46438;DHT22;32137;48.728;9.142;2023-07-31T06:00:33;16.10;99.90
46438;DHT22;32137;48.728;9.142;2023-07-31T06:02:59;16.10;99.90
46438;DHT22;32137;48.728;9.142;2023-07-31T06:05:24;16.20;99.90
46438;DHT22;32137;48.728;9.142;2023-07-31T06:07:51;16.20;99.90
46438;DHT22;32137;48.728;9.142;2023-07-31T06:10:16;16.30;99.90
46438;DHT22;32137;48.728;9.142;2023-07-31T06:12:42;16.30;99.90
46438;DHT22;32137;48.728;9.142;2023-07-31T06:15:07;16.30;99.90
46438;DHT22;32137;48.728;9.142;2023-07-31T06:17:33;16.40;99.90
46438;DHT22;32137;48.728;9.142;2023-07-31T06:19:58;16.40;83.00
46438;DHT22;32137;48.728;9.142;2023-07-31T06:22:24;16.50;52.90
46438;DHT22;32137;48.728;9.142;2023-07-31T06:24:49;16.60;1.00
46438;DHT22;32137;48.728;9.142;2023-07-31T06:27:15;16.60;1.00
46438;DHT22;32137;48.728;9.142;2023-07-31T06:29:41;16.70;1.00
46438;DHT22;32137;48.728;9.142;2023-07-31T06:32:07;16.70;1.00
46438;DHT22;32137;48.728;9.142;2023-07-31T06:34:33;16.80;1.00
46438;DHT22;32137;48.728;9.142;2023-07-31T06:36:58;16.80;1.00
46438;DHT22;32137;48.728;9.142;2023-07-31T06:39:24;16.90;1.00
46438;DHT22;32137;48.728;9.142;2023-07-31T06:41:49;16.80;1.00
46438;DHT22;32137;48.728;9.142;2023-07-31T06:44:15;16.80;1.00
46438;DHT22;32137;48.728;9.142;2023-07-31T06:46:40;16.80;1.00
46438;DHT22;32137;48.728;9.142;2023-07-31T06:49:05;16.80;1.00
46438;DHT22;32137;48.728;9.142;2023-07-31T06:51:31;16.90;1.00
46438;DHT22;32137;48.728;9.142;2023-07-31T06:53:57;16.90;1.00
46438;DHT22;32137;48.728;9.142;2023-07-31T06:56:22;17.00;1.00
46438;DHT22;32137;48.728;9.142;2023-07-31T06:58:48;17.10;1.00
46438;DHT22;32137;48.728;9.142;2023-07-31T07:01:13;17.20;1.00
46438;DHT22;32137;48.728;9.142;2023-07-31T07:03:39;17.20;1.00
46438;DHT22;32137;48.728;9.142;2023-07-31T07:06:05;17.10;1.00
46438;DHT22;32137;48.728;9.142;2023-07-31T07:08:30;17.20;1.00
46438;DHT22;32137;48.728;9.142;2023-07-31T07:10:55;17.30;1.00
46438;DHT22;32137;48.728;9.142;2023-07-31T07:13:21;17.30;1.00
46438;DHT22;32137;48.728;9.142;2023-07-31T07:15:50;17.40;1.00
46438;DHT22;32137;48.728;9.142;2023-07-31T07:18:15;17.50;1.00
46438;DHT22;32137;48.728;9.142;2023-07-31T07:20:46;17.60;1.00
46438;DHT22;32137;48.728;9.142;2023-07-31T07:23:11;17.60;1.00
46438;DHT22;32137;48.728;9.142;2023-07-31T07:25:37;17.70;1.00
46438;DHT22;32137;48.728;9.142;2023-07-31T07:28:03;17.80;99.90
46438;DHT22;32137;48.728;9.142;2023-07-31T07:30:28;17.90;1.00
46438;DHT22;32137;48.728;9.142;2023-07-31T07:32:54;17.90;1.00
46438;DHT22;32137;48.728;9.142;2023-07-31T07:35:19;17.90;99.90
46438;DHT22;32137;48.728;9.142;2023-07-31T07:37:44;17.90;99.90
46438;DHT22;32137;48.728;9.142;2023-07-31T07:40:10;17.80;99.90
46438;DHT22;32137;48.728;9.142;2023-07-31T07:42:35;17.80;1.00
46438;DHT22;32137;48.728;9.142;2023-07-31T07:45:01;17.70;1.00
46438;DHT22;32137;48.728;9.142;2023-07-31T07:47:27;17.70;1.00
46438;DHT22;32137;48.728;9.142;2023-07-31T07:49:52;17.70;1.00
46438;DHT22;32137;48.728;9.142;2023-07-31T07:52:18;17.70;1.00
46438;DHT22;32137;48.728;9.142;2023-07-31T07:54:43;17.70;1.00
46438;DHT22;32137;48.728;9.142;2023-07-31T07:57:08;17.70;1.00
46438;DHT22;32137;48.728;9.142;2023-07-31T07:59:34;17.70;1.00
46438;DHT22;32137;48.728;9.142;2023-07-31T08:01:59;17.70;99.90
46438;DHT22;32137;48.728;9.142;2023-07-31T08:04:25;17.70;1.00
46438;DHT22;32137;48.728;9.142;2023-07-31T08:06:50;17.70;1.00
46438;DHT22;32137;48.728;9.142;2023-07-31T08:09:16;17.80;1.00
46438;DHT22;32137;48.728;9.142;2023-07-31T08:11:41;17.80;1.00
46438;DHT22;32137;48.728;9.142;2023-07-31T08:14:07;17.90;99.90
46438;DHT22;32137;48.728;9.142;2023-07-31T08:16:32;18.00;99.90
46438;DHT22;32137;48.728;9.142;2023-07-31T08:18:58;18.00;99.90
46438;DHT22;32137;48.728;9.142;2023-07-31T08:21:23;17.90;99.90
46438;DHT22;32137;48.728;9.142;2023-07-31T08:23:48;17.90;99.90
46438;DHT22;32137;48.728;9.142;2023-07-31T08:26:15;17.90;99.90
46438;DHT22;32137;48.728;9.142;2023-07-31T08:28:40;17.90;99.90
46438;DHT22;32137;48.728;9.142;2023-07-31T08:31:06;17.90;99.90
46438;DHT22;32137;48.728;9.142;2023-07-31T08:33:31;18.00;99.90
46438;DHT22;32137;48.728;9.142;2023-07-31T08:35:57;18.00;99.90
46438;DHT22;32137;48.728;9.142;2023-07-31T08:38:22;18.10;99.90
46438;DHT22;32137;48.728;9.142;2023-07-31T08:40:50;18.20;99.90
46438;DHT22;32137;48.728;9.142;2023-07-31T08:43:16;18.20;99.90
46438;DHT22;32137;48.728;9.142;2023-07-31T08:45:41;18.30;99.90
46438;DHT22;32137;48.728;9.142;2023-07-31T08:48:07;18.50;99.90
46438;DHT22;32137;48.728;9.142;2023-07-31T08:50:32;18.50;99.90
46438;DHT22;32137;48.728;9.142;2023-07-31T08:52:58;18.60;99.90
46438;DHT22;32137;48.728;9.142;2023-07-31T08:55:24;18.60;99.90
46438;DHT22;32137;48.728;9.142;2023-07-31T08:57:52;18.70;99.90
46438;DHT22;32137;48.728;9.142;2023-07-31T09:00:18;18.90;99.90
46438;DHT22;32137;48.728;9.142;2023-07-31T09:02:47;19.00;99.90
46438;DHT22;32137;48.728;9.142;2023-07-31T09:05:13;19.00;99.90
46438;DHT22;32137;48.728;9.142;2023-07-31T09:07:39;19.20;99.90
46438;DHT22;32137;48.728;9.142;2023-07-31T09:10:05;19.20;99.90
46438;DHT22;32137;48.728;9.142;2023-07-31T09:12:31;19.30;99.90
46438;DHT22;32137;48.728;9.142;2023-07-31T09:14:59;19.40;99.90
46438;DHT22;32137;48.728;9.142;2023-07-31T09:17:29;19.40;99.90
46438;DHT22;32137;48.728;9.142;2023-07-31T09:19:55;19.50;99.90
46438;DHT22;32137;48.728;9.142;2023-07-31T09:22:34;19.50;99.90
46438;DHT22;32137;48.728;9.142;2023-07-31T09:25:19;19.60;99.90
46438;DHT22;32137;48.728;9.142;2023-07-31T09:27:54;19.60;99.90
46438;DHT22;32137;48.728;9.142;2023-07-31T09:30:20;19.60;99.90
46438;DHT22;32137;48.728;9.142;2023-07-31T09:32:46;19.50;99.90
46438;DHT22;32137;48.728;9.142;2023-07-31T09:37:41;19.50;99.90
46438;DHT22;32137;48.728;9.142;2023-07-31T09:40:06;19.40;99.90
46438;DHT22;32137;48.728;9.142;2023-07-31T09:42:32;19.40;99.90
46438;DHT22;32137;48.728;9.142;2023-07-31T09:45:08;19.40;99.90
46438;DHT22;32137;48.728;9.142;2023-07-31T09:47:34;19.30;99.90
46438;DHT22;32137;48.728;9.142;2023-07-31T09:50:00;19.30;99.90
46438;DHT22;32137;48.728;9.142;2023-07-31T09:52:26;19.40;99.90
46438;DHT22;32137;48.728;9.142;2023-07-31T09:54:51;19.50;99.90
46438;DHT22;32137;48.728;9.142;2023-07-31T09:57:16;19.60;99.90
46438;DHT22;32137;48.728;9.142;2023-07-31T09:59:42;19.80;99.90
46438;DHT22;32137;48.728;9.142;2023-07-31T10:02:08;20.00;99.90
46438;DHT22;32137;48.728;9.142;2023-07-31T10:04:36;20.00;99.90
46438;DHT22;32137;48.728;9.142;2023-07-31T10:07:02;20.00;99.90
46438;DHT22;32137;48.728;9.142;2023-07-31T10:09:28;19.90;99.90
46438;DHT22;32137;48.728;9.142;2023-07-31T10:11:59;19.90;99.90
46438;DHT22;32137;48.728;9.142;2023-07-31T10:14:25;20.00;99.90
46438;DHT22;32137;48.728;9.142;2023-07-31T10:16:51;20.00;99.90
46438;DHT22;32137;48.728;9.142;2023-07-31T10:19:18;20.00;99.90
46438;DHT22;32137;48.728;9.142;2023-07-31T10:21:43;20.10;99.90
46438;DHT22;32137;48.728;9.142;2023-07-31T10:24:09;20.20;99.90
46438;DHT22;32137;48.728;9.142;2023-07-31T10:26:35;20.30;64.70
46438;DHT22;32137;48.728;9.142;2023-07-31T10:29:01;20.30;66.70
46438;DHT22;32137;48.728;9.142;2023-07-31T10:31:27;20.30;86.30
46438;DHT22;32137;48.728;9.142;2023-07-31T10:33:53;20.30;98.10
46438;DHT22;32137;48.728;9.142;2023-07-31T10:36:19;20.30;99.60
46438;DHT22;32137;48.728;9.142;2023-07-31T10:38:45;20.50;99.90
46438;DHT22;32137;48.728;9.142;2023-07-31T10:41:11;20.70;52.50
46438;DHT22;32137;48.728;9.142;2023-07-31T10:43:37;20.80;46.50
46438;DHT22;32137;48.728;9.142;2023-07-31T10:46:09;20.90;28.20
46438;DHT22;32137;48.728;9.142;2023-07-31T10:48:36;21.00;2.80
46438;DHT22;32137;48.728;9.142;2023-07-31T10:51:06;21.10;1.00
46438;DHT22;32137;48.728;9.142;2023-07-31T10:53:32;21.20;1.00
46438;DHT22;32137;48.728;9.142;2023-07-31T10:55:58;21.20;1.00
46438;DHT22;32137;48.728;9.142;2023-07-31T10:58:24;21.10;9.90
46438;DHT22;32137;48.728;9.142;2023-07-31T11:00:49;21.20;1.00
46438;DHT22;32137;48.728;9.142;2023-07-31T11:03:16;21.10;1.00
46438;DHT22;32137;48.728;9.142;2023-07-31T11:08:13;21.30;1.00
46438;DHT22;32137;48.728;9.142;2023-07-31T11:10:39;21.40;1.00
46438;DHT22;32137;48.728;9.142;2023-07-31T11:13:04;21.40;1.00
46438;DHT22;32137;48.728;9.142;2023-07-31T11:15:30;21.40;1.00
46438;DHT22;32137;48.728;9.142;2023-07-31T11:17:56;21.50;1.00
46438;DHT22;32137;48.728;9.142;2023-07-31T11:20:26;21.50;1.00
46438;DHT22;32137;48.728;9.142;2023-07-31T11:22:52;21.50;1.00
46438;DHT22;32137;48.728;9.142;2023-07-31T11:25:17;21.60;1.00
46438;DHT22;32137;48.728;9.142;2023-07-31T11:27:43;21.50;1.00
46438;DHT22;32137;48.728;9.142;2023-07-31T11:30:09;21.40;1.00
46438;DHT22;32137;48.728;9.142;2023-07-31T11:32:38;21.40;1.00
46438;DHT22;32137;48.728;9.142;2023-07-31T11:35:03;21.20;1.00
46438;DHT22;32137;48.728;9.142;2023-07-31T11:37:43;21.20;1.00
46438;DHT22;32137;48.728;9.142;2023-07-31T11:40:09;21.20;1.00
46438;DHT22;32137;48.728;9.142;2023-07-31T11:42:35;21.20;1.00
46438;DHT22;32137;48.728;9.142;2023-07-31T11:45:02;21.20;1.00
46438;DHT22;32137;48.728;9.142;2023-07-31T11:47:27;21.10;1.00
46438;DHT22;32137;48.728;9.142;2023-07-31T11:49:53;21.00;14.80
46438;DHT22;32137;48.728;9.142;2023-07-31T11:52:18;21.00;26.50
46438;DHT22;32137;48.728;9.142;2023-07-31T11:54:45;21.10;19.40
46438;DHT22;32137;48.728;9.142;2023-07-31T11:57:11;21.00;27.10
46438;DHT22;32137;48.728;9.142;2023-07-31T11:59:37;21.10;26.70
46438;DHT22;32137;48.728;9.142;2023-07-31T12:02:03;21.00;48.40
46438;DHT22;32137;48.728;9.142;2023-07-31T12:04:29;21.00;34.10
46438;DHT22;32137;48.728;9.142;2023-07-31T12:06:54;21.00;80.50
46438;DHT22;32137;48.728;9.142;2023-07-31T12:09:20;21.00;71.10
46438;DHT22;32137;48.728;9.142;2023-07-31T12:11:46;21.00;73.10
46438;DHT22;32137;48.728;9.142;2023-07-31T12:14:21;21.10;92.60
46438;DHT22;32137;48.728;9.142;2023-07-31T12:16:47;21.20;32.30
46438;DHT22;32137;48.728;9.142;2023-07-31T12:19:13;21.30;17.60
46438;DHT22;32137;48.728;9.142;2023-07-31T12:21:38;21.30;24.70
46438;DHT22;32137;48.728;9.142;2023-07-31T12:24:04;21.20;49.90
46438;DHT22;32137;48.728;9.142;2023-07-31T12:26:35;21.20;33.90
46438;DHT22;32137;48.728;9.142;2023-07-31T12:29:01;21.20;17.40
46438;DHT22;32137;48.728;9.142;2023-07-31T12:31:27;21.10;34.80
46438;DHT22;32137;48.728;9.142;2023-07-31T12:33:53;21.00;63.50
46438;DHT22;32137;48.728;9.142;2023-07-31T12:36:20;21.00;84.10
46438;DHT22;32137;48.728;9.142;2023-07-31T12:38:46;20.90;72.30
46438;DHT22;32137;48.728;9.142;2023-07-31T12:41:11;20.90;96.00
46438;DHT22;32137;48.728;9.142;2023-07-31T12:43:37;20.80;74.00
46438;DHT22;32137;48.728;9.142;2023-07-31T12:46:03;20.80;97.10
46438;DHT22;32137;48.728;9.142;2023-07-31T12:48:29;20.80;99.90
46438;DHT22;32137;48.728;9.142;2023-07-31T12:50:54;20.70;99.90
46438;DHT22;32137;48.728;9.142;2023-07-31T12:53:20;20.80;99.90
46438;DHT22;32137;48.728;9.142;2023-07-31T12:55:46;20.80;94.30
46438;DHT22;32137;48.728;9.142;2023-07-31T12:58:11;20.90;83.80
46438;DHT22;32137;48.728;9.142;2023-07-31T13:00:37;21.40;99.90
46438;DHT22;32137;48.728;9.142;2023-07-31T13:03:03;22.00;5.30
46438;DHT22;32137;48.728;9.142;2023-07-31T13:05:28;22.70;1.00
46438;DHT22;32137;48.728;9.142;2023-07-31T13:07:54;22.90;1.00
46438;DHT22;32137;48.728;9.142;2023-07-31T13:10:20;23.00;1.00
46438;DHT22;32137;48.728;9.142;2023-07-31T13:12:45;23.80;1.00
46438;DHT22;32137;48.728;9.142;2023-07-31T13:15:11;24.40;1.00
46438;DHT22;32137;48.728;9.142;2023-07-31T13:17:37;25.00;1.00
46438;DHT22;32137;48.728;9.142;2023-07-31T13:20:03;24.90;1.00
46438;DHT22;32137;48.728;9.142;2023-07-31T13:22:29;24.50;1.00
46438;DHT22;32137;48.728;9.142;2023-07-31T13:24:54;24.40;1.00
46438;DHT22;32137;48.728;9.142;2023-07-31T13:27:20;24.10;1.00
46438;DHT22;32137;48.728;9.142;2023-07-31T13:29:50;23.80;1.00
46438;DHT22;32137;48.728;9.142;2023-07-31T13:32:16;23.60;1.00
46438;DHT22;32137;48.728;9.142;2023-07-31T13:34:41;23.40;1.00
46438;DHT22;32137;48.728;9.142;2023-07-31T13:37:07;23.30;1.00
46438;DHT22;32137;48.728;9.142;2023-07-31T13:39:32;23.20;1.00
46438;DHT22;32137;48.728;9.142;2023-07-31T13:42:02;23.20;1.00
46438;DHT22;32137;48.728;9.142;2023-07-31T13:44:27;23.00;1.00
46438;DHT22;32137;48.728;9.142;2023-07-31T13:46:53;22.80;1.00
46438;DHT22;32137;48.728;9.142;2023-07-31T13:49:18;22.90;1.00
46438;DHT22;32137;48.728;9.142;2023-07-31T13:51:44;23.00;1.00
46438;DHT22;32137;48.728;9.142;2023-07-31T13:54:09;22.80;1.00
46438;DHT22;32137;48.728;9.142;2023-07-31T13:56:36;22.70;1.00
46438;DHT22;32137;48.728;9.142;2023-07-31T13:59:02;22.60;1.00
46438;DHT22;32137;48.728;9.142;2023-07-31T14:01:27;22.50;1.00
46438;DHT22;32137;48.728;9.142;2023-07-31T14:03:53;22.40;1.00
46438;DHT22;32137;48.728;9.142;2023-07-31T14:06:19;22.30;1.00
46438;DHT22;32137;48.728;9.142;2023-07-31T14:08:44;22.20;1.00
46438;DHT22;32137;48.728;9.142;2023-07-31T14:11:10;22.20;1.00
46438;DHT22;32137;48.728;9.142;2023-07-31T14:13:35;22.00;12.80
46438;DHT22;32137;48.728;9.142;2023-07-31T14:16:01;22.00;7.80
46438;DHT22;32137;48.728;9.142;2023-07-31T14:18:26;21.90;1.00
46438;DHT22;32137;48.728;9.142;2023-07-31T14:20:51;21.90;13.80
46438;DHT22;32137;48.728;9.142;2023-07-31T14:23:19;21.90;54.10
46438;DHT22;32137;48.728;9.142;2023-07-31T14:25:45;21.90;35.40
46438;DHT22;32137;48.728;9.142;2023-07-31T14:28:11;22.00;65.60
46438;DHT22;32137;48.728;9.142;2023-07-31T14:30:36;21.90;64.10
46438;DHT22;32137;48.728;9.142;2023-07-31T14:33:01;21.90;42.90
46438;DHT22;32137;48.728;9.142;2023-07-31T14:35:27;21.90;57.60
46438;DHT22;32137;48.728;9.142;2023-07-31T14:37:53;21.80;47.30
46438;DHT22;32137;48.728;9.142;2023-07-31T14:40:18;21.80;1.00
46438;DHT22;32137;48.728;9.142;2023-07-31T14:42:44;21.90;2.40
46438;DHT22;32137;48.728;9.142;2023-07-31T14:45:09;21.90;67.60
46438;DHT22;32137;48.728;9.142;2023-07-31T14:47:35;22.00;52.70
46438;DHT22;32137;48.728;9.142;2023-07-31T14:50:01;22.20;2.50
46438;DHT22;32137;48.728;9.142;2023-07-31T14:52:26;22.40;1.00
46438;DHT22;32137;48.728;9.142;2023-07-31T14:54:52;22.50;1.00
46438;DHT22;32137;48.728;9.142;2023-07-31T14:57:17;22.70;1.00
46438;DHT22;32137;48.728;9.142;2023-07-31T14:59:43;22.80;1.00
46438;DHT22;32137;48.728;9.142;2023-07-31T15:02:09;22.80;1.00
46438;DHT22;32137;48.728;9.142;2023-07-31T15:04:35;23.00;1.00
46438;DHT22;32137;48.728;9.142;2023-07-31T15:07:00;23.10;1.00
46438;DHT22;32137;48.728;9.142;2023-07-31T15:09:26;23.30;1.00
46438;DHT22;32137;48.728;9.142;2023-07-31T15:11:51;23.50;1.00
46438;DHT22;32137;48.728;9.142;2023-07-31T15:14:17;23.50;1.00
46438;DHT22;32137;48.728;9.142;2023-07-31T15:16:42;23.50;1.00
46438;DHT22;32137;48.728;9.142;2023-07-31T15:19:08;23.40;1.00
46438;DHT22;32137;48.728;9.142;2023-07-31T15:21:33;23.40;1.00
46438;DHT22;32137;48.728;9.142;2023-07-31T15:23:58;23.30;1.00
46438;DHT22;32137;48.728;9.142;2023-07-31T15:26:24;23.40;1.00
46438;DHT22;32137;48.728;9.142;2023-07-31T15:28:50;23.70;1.00
46438;DHT22;32137;48.728;9.142;2023-07-31T15:31:20;23.80;1.00
46438;DHT22;32137;48.728;9.142;2023-07-31T15:33:47;24.00;1.00